Have a Safe July 4th! 

Flight Track Log - Related Links

Times and Time Zones

All times are in EDT time to prevent confusion due to time zone crossing. See the N607PA flight status page for this flight to view local times or setup timezone preferences in your user account.

Time Position Orientation Groundspeed Altitude Reporting Facility
EDT Latitude Longitude Course Direction KTS MPH feet Rate Location/Type
Wed 08:03:10 PM 29.2028 -81.0156 124° Southeast 96 110 1,900  Level Jacksonville Center
Wed 08:04:11 PM 29.1878 -80.9897 124° Southeast 116 133 2,900 1,041 Climbing Jacksonville Center
Wed 08:05:11 PM 29.1561 -80.9783 163° South 113 130 4,000 1,096 Climbing Jacksonville Center
Wed 08:06:06 PM 29.1269 -80.9694 165° South 115 132 5,000 787 Climbing Jacksonville Center
Wed 08:07:13 PM 29.0911 -80.9536 159° South 155 178 5,600 154 Climbing Jacksonville Center
Wed 08:09:21 PM 29.0000 -80.9500 178° South 171 197 5,500 -32 Descending Orlando TRACON
Wed 08:10:21 PM 28.9500 -80.9333 164° South 171 197 5,500  Level Orlando TRACON
Wed 08:11:21 PM 28.9000 -80.9333 180° South 174 200 5,500  Level Orlando TRACON
Wed 08:12:15 PM 28.8500 -80.9167 164° South 171 197 5,500 50 Level Orlando TRACON
Wed 08:13:21 PM 28.8000 -80.9000 164° South 172 198 5,600  Climbing Orlando TRACON
Wed 08:14:21 PM 28.7667 -80.8667 139° Southeast 176 203 5,500 -50 Descending Orlando TRACON
Wed 08:15:21 PM 28.7167 -80.8500 164° South 173 199 5,500  Level Orlando TRACON
Wed 08:16:21 PM 28.6667 -80.8333 164° South 173 199 5,500  Level Orlando TRACON
Wed 08:17:21 PM 28.6167 -80.8167 164° South 174 200 5,500 -48 Level Orlando TRACON
Wed 08:18:27 PM 28.5833 -80.8000 156° South 175 201 5,400  Descending Orlando TRACON
Wed 08:19:27 PM 28.5333 -80.7833 164° South 175 201 5,500 53 Climbing Orlando TRACON
Wed 08:20:21 PM 28.4833 -80.7667 164° South 179 206 5,500 -50 Level Orlando TRACON
Wed 08:21:27 PM 28.4333 -80.7500 164° South 177 204 5,400  Descending Orlando TRACON
Wed 08:22:27 PM 28.3833 -80.7333 164° South 177 204 5,500  Climbing Orlando TRACON
Wed 08:23:27 PM 28.3333 -80.7167 164° South 177 204 5,400  Descending Orlando TRACON
Wed 08:24:27 PM 28.3000 -80.7000 156° South 179 206 5,500 52 Climbing Orlando TRACON
Wed 08:25:22 PM 28.2500 -80.6833 164° South 177 204 5,500  Level Orlando TRACON
Wed 08:26:22 PM 28.2000 -80.6667 164° South 176 203 5,500  Level Orlando TRACON
Wed 08:27:22 PM 28.1500 -80.6333 150° Southeast 177 204 5,500  Level Orlando TRACON
Wed 08:28:21 PM 28.1167 -80.6167 156° South 179 206 5,500 -92 Level Orlando TRACON
Wed 08:29:32 PM 28.0617 -80.6119 176° South 188 216 5,300  Descending Miami Center
Wed 08:30:32 PM 28.0078 -80.5983 167° South 176 203 5,500 50 Climbing Miami Center
Wed 08:31:31 PM 27.9600 -80.5897 171° South 176 203 5,400  Descending Miami Center
Wed 08:32:31 PM 27.9144 -80.5719 161° South 181 208 5,500  Climbing Miami Center
Wed 08:33:31 PM 27.8775 -80.5472 149° Southeast 181 208 5,400  Descending Miami Center
Wed 08:34:31 PM 27.8283 -80.5197 154° Southeast 181 208 5,500 -37 Climbing Miami Center
Wed 08:57:55 PM 27.6122 -80.4731 336° Northwest 123 142 4,500 -41 Descending Miami Center
Wed 08:58:55 PM 27.6536 -80.4883 342° North 140 161 4,500  Level Miami Center
Wed 08:59:55 PM 27.6953 -80.4944 353° North 156 180 4,500  Level Miami Center
Wed 09:00:55 PM 27.7428 -80.5169 337° Northwest 163 188 4,500  Level Miami Center
Wed 09:02:55 PM 27.8253 -80.5478 342° North 163 188 4,500 27 Level Miami Center
Wed 09:04:41 PM 27.9000 -80.5833 337° Northwest 161 185 4,600 72 Climbing Orlando TRACON
Wed 09:05:41 PM 27.9500 -80.6000 344° North 160 184 4,700  Climbing Orlando TRACON
Wed 09:06:41 PM 27.9833 -80.6167 336° Northwest 165 190 4,600 -52 Descending Orlando TRACON
Wed 09:07:36 PM 28.0333 -80.6333 344° North 160 184 4,600 -50 Level Orlando TRACON
Wed 09:08:42 PM 28.0667 -80.6333 360° North 162 186 4,500  Descending Orlando TRACON
Wed 09:09:42 PM 28.1167 -80.6500 344° North 161 185 4,600  Climbing Orlando TRACON
Wed 09:10:48 PM 28.1667 -80.6667 344° North 161 185 4,500 -48 Descending Orlando TRACON
Wed 09:11:48 PM 28.2000 -80.6833 336° Northwest 163 188 4,500 100 Level Orlando TRACON
Wed 09:12:48 PM 28.2500 -80.7000 344° North 162 186 4,700 53 Climbing Orlando TRACON
Wed 09:13:42 PM 28.2833 -80.7167 336° Northwest 165 190 4,600 -50 Descending Orlando TRACON
Wed 09:14:48 PM 28.3333 -80.7333 344° North 159 183 4,600  Level Orlando TRACON
Wed 09:15:48 PM 28.3833 -80.7500 344° North 164 189 4,600  Level Orlando TRACON
Wed 09:16:48 PM 28.4167 -80.7667 336° Northwest 163 188 4,600  Level Orlando TRACON
Wed 09:17:54 PM 28.4667 -80.7833 344° North 163 188 4,600 48 Level Orlando TRACON
Wed 09:18:54 PM 28.5167 -80.8000 344° North 156 180 4,700 -48 Climbing Orlando TRACON
Wed 09:20:00 PM 28.5667 -80.8167 344° North 164 189 4,500 -56 Descending Orlando TRACON
Wed 09:20:42 PM 28.5833 -80.8333 319° Northwest 160 184 4,600 62 Climbing Orlando TRACON
Wed 09:21:37 PM 28.6167 -80.8500 336° Northwest 160 184 4,600  Level Orlando TRACON
Wed 09:22:42 PM 28.6667 -80.8667 344° North 162 186 4,600  Level Orlando TRACON

Login

Don't have an account? Register now (free) for customized features, flight alerts, and more!